Time;durP1;ratioP1;P1;durP2;ratioP2;P2;SDS_P1;SDS_P2;PMS_P1;PMS_P2;Temp;Humidity;BMP_temperature;BMP_pressure;BME280_temperature;BME280_humidity;BME280_pressure;Samples;Min_cycle;Max_cycle;Signal;HPM_P1;HPM_P2
2023/11/02 00:00:34;;;;;;;;;;;8.10;64.70;;;3.33;100.00;93999.56;4953334;28;19921;-47
2023/11/02 00:03:05;;;;;;;;;;;8.10;64.80;;;3.33;100.00;94008.25;4946921;28;19922;-47
2023/11/02 00:06:21;;;;;;;;;;;8.10;64.80;;;3.37;100.00;93998.00;4951665;28;19921;-48
2023/11/02 00:09:17;;;;;;;;;;;8.10;65.20;;;3.40;100.00;93982.47;4951526;28;19916;-47
2023/11/02 00:11:56;;;;;;;;;;;8.10;65.00;;;3.43;100.00;93974.06;4953204;28;20377;-48
2023/11/02 00:14:26;;;;;;;;;;;8.10;65.10;;;3.44;100.00;93964.31;4952062;28;20296;-47
2023/11/02 00:16:52;;;;;;;;;;;8.20;65.20;;;3.42;100.00;93963.81;4953310;28;19956;-47
2023/11/02 00:19:35;;;;;;;;;;;8.20;65.30;;;3.44;100.00;93959.84;4951744;28;19925;-47
2023/11/02 00:22:09;;;;;;;;;;;8.20;65.30;;;3.46;100.00;93956.97;4951603;28;19918;-47
2023/11/02 00:24:40;;;;;;;;;;;8.20;65.30;;;3.45;100.00;93958.81;4952947;28;19910;-52
2023/11/02 00:27:07;;;;;;;;;;;8.20;65.40;;;3.45;100.00;93964.06;4950564;28;19910;-50
2023/11/02 00:29:33;;;;;;;;;;;8.30;65.40;;;3.48;100.00;93949.59;4953299;28;19933;-47
2023/11/02 00:32:00;;;;;;;;;;;8.30;65.40;;;3.50;100.00;93946.69;4950141;28;19918;-49
2023/11/02 00:34:27;;;;;;;;;;;8.30;65.40;;;3.52;100.00;93936.72;4945418;28;19918;-49
2023/11/02 00:36:53;;;;;;;;;;;8.30;65.30;;;3.52;100.00;93932.22;4943723;28;19914;-51
2023/11/02 00:39:20;;;;;;;;;;;8.30;65.40;;;3.55;100.00;93925.66;4949823;28;19914;-47
2023/11/02 00:41:47;;;;;;;;;;;8.40;65.50;;;3.57;100.00;93921.69;4951981;29;19921;-48
2023/11/02 00:44:14;;;;;;;;;;;8.30;65.50;;;3.61;100.00;93928.03;4951521;28;19910;-51
2023/11/02 00:46:40;;;;;;;;;;;8.40;65.50;;;3.62;100.00;93926.97;4952986;28;19956;-48
2023/11/02 00:49:27;;;;;;;;;;;8.40;65.50;;;3.61;100.00;93929.88;4953187;28;19989;-47
2023/11/02 00:52:01;;;;;;;;;;;8.40;65.50;;;3.63;100.00;93922.50;4952109;28;19933;-47
2023/11/02 00:54:56;;;;;;;;;;;8.40;65.50;;;3.63;100.00;93904.84;4952436;28;19910;-48
2023/11/02 00:57:28;;;;;;;;;;;8.40;65.50;;;3.58;100.00;93894.31;4948184;29;19961;-49
2023/11/02 00:59:57;;;;;;;;;;;8.40;65.50;;;3.54;100.00;93892.47;4952039;28;19917;-52
2023/11/02 01:02:23;;;;;;;;;;;8.40;65.50;;;3.50;100.00;93894.84;4943662;28;20104;-49
2023/11/02 01:04:55;;;;;;;;;;;8.30;65.40;;;3.50;100.00;93884.31;4954596;28;20336;-48
2023/11/02 01:07:22;;;;;;;;;;;8.30;65.30;;;3.48;100.00;93889.84;4956541;28;19917;-50
2023/11/02 01:09:47;;;;;;;;;;;8.30;65.50;;;3.46;100.00;93886.66;4954446;28;19916;-48
2023/11/02 01:12:36;;;;;;;;;;;8.30;65.50;;;3.47;100.00;93879.56;4971472;28;19909;-49
2023/11/02 01:15:23;;;;;;;;;;;8.30;65.50;;;3.46;100.00;93881.41;4944499;28;20063;-49
2023/11/02 01:17:49;;;;;;;;;;;8.30;65.60;;;3.45;100.00;93866.66;4956278;28;19914;-47
2023/11/02 01:20:46;;;;;;;;;;;8.30;65.60;;;3.47;100.00;93848.75;4954323;28;19917;-48
2023/11/02 01:23:18;;;;;;;;;;;8.30;65.70;;;3.50;100.00;93839.53;4955212;28;19914;-48
2023/11/02 01:25:50;;;;;;;;;;;8.30;65.70;;;3.54;100.00;93837.16;4937110;28;19911;-52
2023/11/02 01:28:19;;;;;;;;;;;8.30;65.70;;;3.60;100.00;93826.38;4940252;28;20362;-50
2023/11/02 01:31:16;;;;;;;;;;;8.40;65.90;;;3.70;100.00;93800.06;4956249;28;19910;-51
2023/11/02 01:33:58;;;;;;;;;;;8.40;66.00;;;3.74;100.00;93796.91;4944162;28;19965;-55
2023/11/02 01:36:35;;;;;;;;;;;8.50;66.20;;;3.80;100.00;93785.31;4943314;28;19964;-47
2023/11/02 01:39:14;;;;;;;;;;;8.50;66.30;;;3.84;100.00;93788.97;4951256;28;20000;-47
2023/11/02 01:42:04;;;;;;;;;;;8.60;66.30;;;3.88;100.00;93772.38;4955898;28;19925;-47
2023/11/02 01:45:09;;;;;;;;;;;8.60;66.30;;;3.93;100.00;93766.31;4952011;28;19936;-54
2023/11/02 01:48:04;;;;;;;;;;;8.60;66.30;;;4.00;100.00;93774.72;4949820;28;19918;-53
2023/11/02 01:50:46;;;;;;;;;;;8.70;66.40;;;4.04;100.00;93761.81;4949037;28;20000;-52
2023/11/02 01:53:51;;;;;;;;;;;8.80;66.40;;;4.14;100.00;93767.84;4936934;29;20005;-52
2023/11/02 01:56:30;;;;;;;;;;;8.80;66.50;;;4.23;100.00;93749.63;4953537;28;19968;-51
2023/11/02 01:59:41;;;;;;;;;;;8.90;66.60;;;4.29;100.00;93737.22;4954242;28;20328;-51
2023/11/02 02:02:34;;;;;;;;;;;9.00;66.60;;;4.34;100.00;93724.03;4954060;28;19918;-52
2023/11/02 02:05:08;;;;;;;;;;;9.00;66.50;;;4.39;100.00;93721.38;4953048;28;20289;-47
2023/11/02 02:08:08;;;;;;;;;;;9.10;66.50;;;4.39;100.00;93708.97;4950935;28;19910;-49
2023/11/02 02:11:02;;;;;;;;;;;9.20;66.50;;;4.44;100.00;93707.38;4952224;28;19917;-51
2023/11/02 02:13:43;;;;;;;;;;;9.20;66.40;;;4.53;100.00;93701.25;4942115;28;20298;-49
2023/11/02 02:16:55;;;;;;;;;;;9.30;67.40;;;4.61;100.00;93687.50;4950096;28;19914;-51
2023/11/02 02:19:41;;;;;;;;;;;9.30;66.60;;;4.64;100.00;93673.78;4952820;23;19926;-47
2023/11/02 02:22:20;;;;;;;;;;;9.40;66.60;;;4.71;100.00;93677.94;4924427;29;19918;-45
2023/11/02 02:24:52;;;;;;;;;;;9.50;66.60;;;4.78;100.00;93659.97;4931205;28;19959;-47
2023/11/02 02:27:40;;;;;;;;;;;9.50;66.60;;;4.81;100.00;93640.94;4938663;28;20388;-46
2023/11/02 02:30:54;;;;;;;;;;;9.60;66.60;;;4.82;100.00;93634.59;4912451;29;20429;-45
2023/11/02 02:33:57;;;;;;;;;;;9.60;66.60;;;4.88;100.00;93622.94;4903231;29;19911;-46
2023/11/02 02:36:35;;;;;;;;;;;9.70;66.60;;;4.93;100.00;93617.63;4914486;29;19926;-45
2023/11/02 02:39:07;;;;;;;;;;;9.70;66.60;;;4.96;100.00;93603.09;4904136;29;19966;-45
2023/11/02 02:41:43;;;;;;;;;;;9.70;66.60;;;4.97;100.00;93602.81;4901659;29;19911;-45
2023/11/02 02:44:13;;;;;;;;;;;9.70;66.60;;;5.04;100.00;93584.00;4910001;29;19977;-45
2023/11/02 02:46:40;;;;;;;;;;;9.80;66.60;;;5.08;100.00;93577.13;4903773;29;19911;-48
2023/11/02 02:49:07;;;;;;;;;;;9.80;66.60;;;5.14;100.00;93575.22;4904945;29;19954;-49
2023/11/02 02:51:42;;;;;;;;;;;9.90;66.60;;;5.17;100.00;93572.00;4903223;29;19915;-50
2023/11/02 02:54:12;;;;;;;;;;;9.90;66.60;;;5.21;100.00;93560.63;4900045;29;20362;-49
2023/11/02 02:56:41;;;;;;;;;;;10.00;66.60;;;5.25;100.00;93537.09;4926164;29;19921;-50
2023/11/02 02:59:15;;;;;;;;;;;10.00;66.60;;;5.29;100.00;93517.78;4915181;29;19925;-47
2023/11/02 03:01:45;;;;;;;;;;;10.10;67.50;;;5.31;100.00;93501.66;4906548;29;19915;-50
2023/11/02 03:04:19;;;;;;;;;;;10.10;66.70;;;5.39;100.00;93508.16;4916079;29;20005;-46
2023/11/02 03:06:51;;;;;;;;;;;10.20;66.90;;;5.51;100.00;93519.09;4914423;29;19911;-50
2023/11/02 03:09:23;;;;;;;;;;;10.20;66.90;;;5.57;100.00;93528.53;4913238;29;19911;-51
2023/11/02 03:11:57;;;;;;;;;;;10.30;66.90;;;5.61;100.00;93547.25;4915986;29;19910;-47
2023/11/02 03:14:25;;;;;;;;;;;10.40;66.90;;;5.54;100.00;93545.75;4914703;29;19911;-45
2023/11/02 03:16:54;;;;;;;;;;;10.40;66.80;;;5.52;100.00;93545.25;4915570;29;20259;-45
2023/11/02 03:19:47;;;;;;;;;;;10.40;66.70;;;5.54;100.00;93544.97;4914233;29;19977;-45
2023/11/02 03:22:18;;;;;;;;;;;10.40;66.60;;;5.51;100.00;93527.03;4911751;29;19974;-47
2023/11/02 03:25:18;;;;;;;;;;;10.40;66.50;;;5.55;100.00;93515.63;4915132;29;20001;-47
2023/11/02 03:28:02;;;;;;;;;;;10.40;66.50;;;5.54;100.00;93524.59;4914927;29;19910;-48
2023/11/02 03:30:39;;;;;;;;;;;10.40;66.50;;;5.48;100.00;93501.97;4915524;29;20386;-45
2023/11/02 03:33:23;;;;;;;;;;;10.40;66.50;;;5.49;100.00;93492.22;4914729;29;19910;-47
2023/11/02 03:36:20;;;;;;;;;;;10.50;66.60;;;5.56;100.00;93496.06;4915166;29;19910;-45
2023/11/02 03:38:55;;;;;;;;;;;10.50;66.60;;;5.62;100.00;93509.22;4912876;29;19911;-45
2023/11/02 03:42:06;;;;;;;;;;;10.50;66.70;;;5.53;100.00;93517.75;4912563;29;20393;-45
2023/11/02 03:44:57;;;;;;;;;;;10.50;66.70;;;5.57;100.00;93513.47;4913095;29;20282;-48
2023/11/02 03:47:31;;;;;;;;;;;10.50;66.60;;;5.52;100.00;93512.78;4915184;29;20417;-44
2023/11/02 03:50:46;;;;;;;;;;;10.50;66.60;;;5.50;100.00;93478.72;4914582;29;20286;-46
2023/11/02 03:53:27;;;;;;;;;;;10.50;66.50;;;5.47;100.00;93465.28;4910632;29;20366;-45
2023/11/02 03:56:10;;;;;;;;;;;10.50;66.50;;;5.40;100.00;93447.16;4911330;29;19942;-45
2023/11/02 03:58:54;;;;;;;;;;;10.40;66.50;;;5.38;100.00;93451.94;4914902;29;19914;-46
2023/11/02 04:01:59;;;;;;;;;;;10.40;66.50;;;5.37;100.00;93444.31;4917289;29;20382;-45
2023/11/02 04:04:53;;;;;;;;;;;10.40;66.60;;;5.33;100.00;93430.91;4910965;29;20029;-45
2023/11/02 04:07:32;;;;;;;;;;;10.40;66.60;;;5.09;100.00;93394.75;4901529;29;28305;-45
2023/11/02 04:10:11;;;;;;;;;;;10.40;66.60;;;5.08;100.00;93395.81;4901211;29;20366;-45
2023/11/02 04:12:49;;;;;;;;;;;10.30;66.50;;;5.20;100.00;93395.44;4903981;29;19919;-45
2023/11/02 04:15:15;;;;;;;;;;;10.30;66.70;;;5.23;100.00;93379.03;4907026;29;20293;-45
2023/11/02 04:17:42;;;;;;;;;;;10.20;66.70;;;5.35;100.00;93368.00;4896272;29;19918;-45
2023/11/02 04:20:09;;;;;;;;;;;10.20;66.80;;;5.36;100.00;93356.41;4903079;29;20014;-45
2023/11/02 04:22:35;;;;;;;;;;;10.30;66.90;;;5.41;100.00;93348.41;4898485;29;19923;-49
2023/11/02 04:25:02;;;;;;;;;;;10.20;66.90;;;5.44;100.00;93345.19;4905637;29;20384;-47
2023/11/02 04:27:27;;;;;;;;;;;10.30;66.90;;;5.48;100.00;93359.38;4918927;29;20380;-47
2023/11/02 04:29:53;;;;;;;;;;;10.30;67.00;;;5.53;100.00;93363.81;4904927;29;19927;-47
2023/11/02 04:32:19;;;;;;;;;;;10.40;66.90;;;5.55;100.00;93357.19;4905751;29;19931;-45
2023/11/02 04:34:45;;;;;;;;;;;10.40;67.00;;;5.55;100.00;93367.75;4925867;29;20274;-48
2023/11/02 04:37:15;;;;;;;;;;;10.40;66.80;;;5.57;100.00;93362.94;4927160;29;19911;-49
2023/11/02 04:39:43;;;;;;;;;;;10.40;66.70;;;5.58;100.00;93347.91;4905140;29;19911;-45
2023/11/02 04:42:11;;;;;;;;;;;10.40;66.70;;;5.57;100.00;93348.94;4898409;29;19915;-45
2023/11/02 04:44:37;;;;;;;;;;;10.40;66.70;;;5.60;100.00;93334.41;4901690;29;20298;-45
2023/11/02 04:47:04;;;;;;;;;;;10.50;66.80;;;5.66;100.00;93320.81;4900713;29;19918;-45
2023/11/02 04:49:33;;;;;;;;;;;10.50;66.70;;;5.61;100.00;93298.97;4905515;29;19922;-47
2023/11/02 04:52:02;;;;;;;;;;;10.50;66.70;;;5.60;100.00;93271.78;4903404;29;19914;-45
2023/11/02 04:54:29;;;;;;;;;;;10.50;66.70;;;5.71;100.00;93262.63;4897852;29;19911;-44
2023/11/02 04:56:55;;;;;;;;;;;10.50;66.70;;;5.83;100.00;93256.09;4907034;29;19954;-47
2023/11/02 04:59:21;;;;;;;;;;;10.60;66.70;;;5.82;100.00;93220.97;4899578;29;19978;-45
2023/11/02 05:01:48;;;;;;;;;;;10.60;66.60;;;5.79;100.00;93203.06;4926169;29;19915;-47
2023/11/02 05:04:15;;;;;;;;;;;10.60;66.60;;;5.91;100.00;93189.38;4901721;29;19919;-46
2023/11/02 05:06:42;;;;;;;;;;;10.60;66.60;;;6.02;100.00;93193.44;4901760;29;20382;-46
2023/11/02 05:09:08;;;;;;;;;;;10.70;66.80;;;6.14;100.00;93184.97;4899947;29;19998;-45
2023/11/02 05:11:34;;;;;;;;;;;10.70;66.80;;;6.24;100.00;93169.72;4903807;29;20081;-47
2023/11/02 05:14:01;;;;;;;;;;;10.80;66.70;;;6.24;100.00;93156.50;4901271;29;19926;-50
2023/11/02 05:16:27;;;;;;;;;;;10.80;66.60;;;6.28;100.00;93161.19;4907497;29;19918;-47
2023/11/02 05:18:53;;;;;;;;;;;10.90;66.60;;;6.24;100.00;93161.00;4901086;29;19930;-48
2023/11/02 05:21:19;;;;;;;;;;;10.90;66.40;;;6.25;100.00;93144.06;4902943;29;19914;-45
2023/11/02 05:23:45;;;;;;;;;;;10.90;66.30;;;6.18;100.00;93146.34;4902304;29;19931;-44
2023/11/02 05:26:13;;;;;;;;;;;10.90;66.30;;;6.22;100.00;93149.94;4903325;29;19910;-45
2023/11/02 05:28:39;;;;;;;;;;;10.90;66.30;;;6.22;100.00;93150.72;4906438;29;19911;-44
2023/11/02 05:31:05;;;;;;;;;;;11.00;66.30;;;6.24;100.00;93134.56;4902772;29;19994;-47
2023/11/02 05:33:31;;;;;;;;;;;11.00;66.30;;;6.20;100.00;93121.13;4900487;29;20026;-45
2023/11/02 05:35:57;;;;;;;;;;;11.00;67.00;;;6.22;100.00;93105.78;4903663;29;20009;-44
2023/11/02 05:38:22;;;;;;;;;;;11.00;66.10;;;6.20;100.00;93075.41;4904293;29;20006;-46
2023/11/02 05:40:48;;;;;;;;;;;11.00;66.00;;;6.17;100.00;93071.53;4901291;29;19957;-46
2023/11/02 05:43:14;;;;;;;;;;;11.00;66.00;;;6.20;100.00;93078.06;4898735;29;19915;-49
2023/11/02 05:45:40;;;;;;;;;;;11.00;66.00;;;6.22;100.00;93097.84;4901970;29;19915;-46
2023/11/02 05:48:06;;;;;;;;;;;11.00;66.10;;;6.21;100.00;93093.66;4901227;29;20059;-46
2023/11/02 05:50:32;;;;;;;;;;;11.00;66.10;;;6.23;100.00;93093.34;4910415;29;19942;-50
2023/11/02 05:52:58;;;;;;;;;;;11.00;66.00;;;6.22;100.00;93110.28;4904802;29;19950;-45
2023/11/02 05:55:24;;;;;;;;;;;11.00;66.00;;;6.19;100.00;93119.59;4903282;29;19969;-45
2023/11/02 05:57:50;;;;;;;;;;;11.00;66.10;;;6.19;100.00;93106.38;4909815;29;19915;-45
2023/11/02 06:00:16;;;;;;;;;;;11.00;66.00;;;6.17;100.00;93102.44;4905528;29;19921;-45
2023/11/02 06:02:43;;;;;;;;;;;11.00;66.00;;;6.13;100.00;93096.19;4912763;29;19922;-48
2023/11/02 06:05:09;;;;;;;;;;;11.00;66.00;;;6.11;100.00;93099.16;4906318;29;19918;-45
2023/11/02 06:07:36;;;;;;;;;;;11.00;65.90;;;6.10;100.00;93097.56;4900644;29;19911;-47
2023/11/02 06:10:05;;;;;;;;;;;10.90;65.80;;;6.07;100.00;93090.22;4907001;29;19910;-45
2023/11/02 06:12:31;;;;;;;;;;;11.00;65.90;;;6.07;100.00;93090.22;4902109;29;20374;-45
2023/11/02 06:14:57;;;;;;;;;;;11.00;65.90;;;6.09;100.00;93095.25;4909503;29;19941;-45
2023/11/02 06:17:23;;;;;;;;;;;11.00;65.90;;;6.07;100.00;93108.72;4901385;29;20393;-45
2023/11/02 06:19:49;;;;;;;;;;;11.00;65.90;;;6.06;100.00;93130.19;4905379;29;19919;-45
2023/11/02 06:22:15;;;;;;;;;;;11.00;65.90;;;6.06;100.00;93130.19;4905853;29;19946;-46
2023/11/02 06:24:42;;;;;;;;;;;10.90;65.90;;;6.08;100.00;93135.94;4906711;29;19997;-45
2023/11/02 06:27:09;;;;;;;;;;;10.90;65.90;;;6.09;100.00;93114.50;4907066;29;20283;-46
2023/11/02 06:29:35;;;;;;;;;;;10.90;65.90;;;6.11;100.00;93115.00;4909403;29;19949;-46
2023/11/02 06:32:01;;;;;;;;;;;11.00;66.00;;;6.11;100.00;93138.00;4905996;29;19918;-45
2023/11/02 06:34:27;;;;;;;;;;;11.00;66.00;;;6.12;100.00;93123.72;4903435;29;20320;-45
2023/11/02 06:36:53;;;;;;;;;;;11.00;66.00;;;6.07;100.00;93118.53;4911623;29;19911;-45
2023/11/02 06:39:21;;;;;;;;;;;11.00;66.00;;;6.02;100.00;93128.13;4910933;29;19957;-45
2023/11/02 06:41:47;;;;;;;;;;;11.00;66.00;;;6.03;100.00;93163.28;4900531;29;19938;-45
2023/11/02 06:44:13;;;;;;;;;;;10.90;65.90;;;6.10;100.00;93176.09;4908951;29;20002;-47
2023/11/02 06:46:39;;;;;;;;;;;10.90;65.90;;;6.07;100.00;93184.59;4909200;29;20005;-46
2023/11/02 06:49:05;;;;;;;;;;;10.90;65.90;;;6.13;100.00;93196.66;4916790;29;19911;-46
2023/11/02 06:51:31;;;;;;;;;;;10.90;65.90;;;6.17;100.00;93221.41;4924024;29;20377;-45
2023/11/02 06:53:56;;;;;;;;;;;10.90;66.00;;;6.20;100.00;93247.25;4931490;28;20274;-45
2023/11/02 06:56:25;;;;;;;;;;;11.00;66.10;;;6.16;100.00;93257.63;4903599;29;19911;-46
2023/11/02 06:58:52;;;;;;;;;;;11.00;66.10;;;6.22;100.00;93272.31;4917569;29;19914;-45
2023/11/02 07:01:19;;;;;;;;;;;11.00;66.10;;;6.23;100.00;93270.47;4914143;29;20013;-46
2023/11/02 07:03:45;;;;;;;;;;;11.00;66.00;;;6.24;100.00;93282.63;4909789;29;20009;-45
2023/11/02 07:06:11;;;;;;;;;;;11.00;66.00;;;6.17;100.00;93275.09;4913201;29;19942;-44
2023/11/02 07:08:38;;;;;;;;;;;11.00;66.00;;;6.18;100.00;93283.78;4907365;29;19965;-45
2023/11/02 07:11:05;;;;;;;;;;;11.00;66.00;;;6.20;100.00;93279.75;4912333;29;20009;-47
2023/11/02 07:13:32;;;;;;;;;;;11.00;66.00;;;6.20;100.00;93261.25;4927570;29;19911;-44
2023/11/02 07:15:58;;;;;;;;;;;10.90;65.90;;;6.21;100.00;93265.47;4907359;29;19911;-45
2023/11/02 07:18:24;;;;;;;;;;;10.90;65.90;;;6.16;100.00;93278.00;4914368;29;19921;-45
2023/11/02 07:20:50;;;;;;;;;;;10.90;66.10;;;6.16;100.00;93255.00;4909532;29;19955;-44
2023/11/02 07:23:16;;;;;;;;;;;10.90;65.90;;;6.15;100.00;93253.44;4913695;29;20335;-47
2023/11/02 07:25:42;;;;;;;;;;;10.90;65.90;;;6.15;100.00;93240.22;4901263;29;19939;-49
2023/11/02 07:28:08;;;;;;;;;;;10.90;65.90;;;6.18;100.00;93228.28;4910464;29;19917;-46
2023/11/02 07:30:34;;;;;;;;;;;10.90;65.90;;;6.19;100.00;93217.41;4901347;29;19911;-44
2023/11/02 07:33:00;;;;;;;;;;;11.00;66.20;;;6.13;100.00;93228.34;4908769;29;20366;-44
2023/11/02 07:35:27;;;;;;;;;;;11.00;66.00;;;6.18;100.00;93230.91;4900621;29;19910;-45
2023/11/02 07:37:53;;;;;;;;;;;11.00;66.00;;;6.14;100.00;93257.16;4905222;29;19958;-45
2023/11/02 07:40:19;;;;;;;;;;;11.00;66.00;;;6.16;100.00;93241.00;4904978;29;19979;-45
2023/11/02 07:42:45;;;;;;;;;;;11.00;66.00;;;6.18;100.00;93236.22;4899740;29;20375;-45
2023/11/02 07:45:11;;;;;;;;;;;11.00;66.00;;;6.11;100.00;93270.16;4901662;29;19911;-45
2023/11/02 07:47:37;;;;;;;;;;;11.00;66.10;;;6.18;100.00;93273.22;4901823;29;20991;-44
2023/11/02 07:50:06;;;;;;;;;;;11.00;66.10;;;6.19;100.00;93264.97;4928251;29;20379;-45
2023/11/02 07:52:32;;;;;;;;;;;11.00;66.10;;;6.20;100.00;93240.09;4902916;29;20342;-44
2023/11/02 07:54:58;;;;;;;;;;;11.00;66.10;;;6.24;100.00;93249.03;4897182;29;19918;-44
2023/11/02 07:57:26;;;;;;;;;;;11.10;66.30;;;6.33;100.00;93238.56;4909127;29;20285;-44
2023/11/02 07:59:52;;;;;;;;;;;11.10;66.30;;;6.28;100.00;93206.91;4899121;29;19962;-44
2023/11/02 08:02:18;;;;;;;;;;;11.20;66.30;;;6.33;100.00;93208.66;4903334;29;19914;-44
2023/11/02 08:04:45;;;;;;;;;;;11.20;66.30;;;6.35;100.00;93194.06;4927498;29;19981;-46
2023/11/02 08:07:11;;;;;;;;;;;11.20;66.30;;;6.37;100.00;93199.09;4913043;29;19966;-47
2023/11/02 08:09:37;;;;;;;;;;;11.20;66.30;;;6.40;100.00;93187.91;4899871;29;19957;-46
2023/11/02 08:12:08;;;;;;;;;;;11.20;66.20;;;6.45;100.00;93177.22;4907716;29;20393;-44
2023/11/02 08:14:37;;;;;;;;;;;11.30;66.30;;;6.45;100.00;93166.63;4915140;29;19968;-44
2023/11/02 08:17:04;;;;;;;;;;;11.30;66.30;;;6.47;100.00;93162.63;4907463;29;20394;-52
2023/11/02 08:19:30;;;;;;;;;;;11.30;66.30;;;6.48;100.00;93150.94;4914867;29;20325;-54
2023/11/02 08:21:56;;;;;;;;;;;11.30;66.30;;;6.48;100.00;93147.53;4908802;29;19915;-54
2023/11/02 08:24:22;;;;;;;;;;;11.30;66.30;;;6.28;100.00;93138.19;4907412;29;19970;-52
2023/11/02 08:26:48;;;;;;;;;;;11.30;66.30;;;6.33;100.00;93124.06;4901874;29;19974;-54
2023/11/02 08:29:14;;;;;;;;;;;11.30;66.30;;;6.39;100.00;93112.28;4922906;29;19914;-55
2023/11/02 08:31:40;;;;;;;;;;;11.30;66.30;;;6.36;100.00;93095.19;4914288;29;19914;-53
2023/11/02 08:34:05;;;;;;;;;;;11.30;66.30;;;6.38;100.00;93090.34;4916614;29;19915;-50
2023/11/02 08:36:31;;;;;;;;;;;11.30;66.30;;;6.36;100.00;93097.81;4913744;29;19917;-53
2023/11/02 08:38:58;;;;;;;;;;;11.30;66.40;;;6.44;100.00;93107.69;4912991;29;20378;-55
2023/11/02 08:41:32;;;;;;;;;;;11.30;66.40;;;6.52;100.00;93159.09;4914667;29;20397;-55
2023/11/02 08:43:59;;;;;;;;;;;11.30;66.40;;;6.60;100.00;93234.31;4914774;29;19930;-54
2023/11/02 08:46:28;;;;;;;;;;;11.40;66.50;;;6.64;100.00;93290.81;4915608;29;19914;-54
2023/11/02 08:48:54;;;;;;;;;;;11.50;66.60;;;6.70;100.00;93289.66;4914684;29;19911;-54
2023/11/02 08:51:23;;;;;;;;;;;11.50;66.60;;;6.77;100.00;93268.88;4913841;29;19915;-53
2023/11/02 08:53:50;;;;;;;;;;;11.60;66.60;;;6.83;100.00;93259.75;4913328;29;19918;-53
2023/11/02 08:56:17;;;;;;;;;;;11.70;66.60;;;6.88;100.00;93267.56;4913823;29;19969;-54
2023/11/02 08:58:46;;;;;;;;;;;11.70;66.60;;;6.93;100.00;93240.22;4914509;29;19949;-55
2023/11/02 09:01:25;;;;;;;;;;;11.80;66.60;;;6.99;100.00;93262.06;4914948;29;20009;-53
2023/11/02 09:03:54;;;;;;;;;;;11.90;66.50;;;7.04;100.00;93252.16;4913545;29;19923;-54
2023/11/02 09:06:22;;;;;;;;;;;12.00;66.50;;;7.11;100.00;93249.09;4913853;29;19961;-55
2023/11/02 09:08:51;;;;;;;;;;;12.10;66.40;;;7.15;100.00;93258.03;4913294;29;20441;-55
2023/11/02 09:11:18;;;;;;;;;;;12.20;66.30;;;6.99;100.00;93246.19;4914799;29;19953;-51
2023/11/02 09:13:45;;;;;;;;;;;12.20;66.20;;;7.11;100.00;93259.69;4914277;29;19915;-46
2023/11/02 09:16:11;;;;;;;;;;;12.30;66.10;;;7.18;100.00;93262.72;4913899;29;19985;-51
2023/11/02 09:18:38;;;;;;;;;;;12.30;66.00;;;7.26;100.00;93274.44;4914254;29;20021;-55
2023/11/02 09:21:05;;;;;;;;;;;12.30;66.00;;;7.31;100.00;93285.72;4913732;29;19910;-55
2023/11/02 09:23:32;;;;;;;;;;;12.40;66.00;;;7.34;100.00;93287.00;4916273;29;19970;-54
2023/11/02 09:25:58;;;;;;;;;;;12.40;66.10;;;7.28;100.00;93288.19;4918261;29;19917;-55
2023/11/02 09:28:25;;;;;;;;;;;12.30;66.00;;;7.29;100.00;93271.97;4920215;28;20421;-53
2023/11/02 09:30:52;;;;;;;;;;;12.30;66.00;;;7.33;100.00;93272.16;4917847;29;20453;-54
2023/11/02 09:33:19;;;;;;;;;;;12.40;66.00;;;7.30;100.00;93265.63;4915575;29;19946;-50
2023/11/02 09:35:46;;;;;;;;;;;12.40;66.00;;;7.35;100.00;93275.28;4917021;29;20266;-54
2023/11/02 09:38:13;;;;;;;;;;;12.40;65.90;;;7.43;100.00;93282.53;4915708;29;19953;-55
2023/11/02 09:40:40;;;;;;;;;;;12.50;66.00;;;7.47;100.00;93280.84;4917779;29;19918;-55
2023/11/02 09:43:07;;;;;;;;;;;12.50;65.90;;;7.53;100.00;93292.91;4917277;29;19930;-53
2023/11/02 09:45:36;;;;;;;;;;;12.60;66.00;;;7.54;100.00;93283.84;4918282;29;20535;-55
2023/11/02 09:48:03;;;;;;;;;;;12.60;66.00;;;7.61;100.00;93296.69;4916725;29;20445;-53
2023/11/02 09:50:29;;;;;;;;;;;12.60;65.90;;;7.63;100.00;93297.16;4916650;29;19922;-54
2023/11/02 09:52:56;;;;;;;;;;;12.60;66.00;;;7.58;100.00;93307.88;4918088;29;20429;-55
2023/11/02 09:55:23;;;;;;;;;;;12.60;66.00;;;7.60;100.00;93311.78;4916793;29;19922;-55
2023/11/02 09:57:50;;;;;;;;;;;12.60;66.00;;;7.62;100.00;93324.75;4919038;29;19921;-51
2023/11/02 10:00:18;;;;;;;;;;;12.60;66.00;;;7.56;100.00;93326.72;4918031;29;19918;-52
2023/11/02 10:02:48;;;;;;;;;;;12.60;66.10;;;7.57;100.00;93343.41;4914474;29;19918;-55
2023/11/02 10:05:15;;;;;;;;;;;12.50;66.00;;;7.60;100.00;93340.94;4916950;29;20394;-53
2023/11/02 10:07:42;;;;;;;;;;;12.50;66.10;;;7.55;100.00;93348.22;4917418;29;19910;-49
2023/11/02 10:10:10;;;;;;;;;;;12.50;66.20;;;7.58;100.00;93351.06;4914996;29;19915;-54
2023/11/02 10:12:37;;;;;;;;;;;12.50;66.30;;;7.57;100.00;93362.72;4917126;29;19911;-53
2023/11/02 10:15:11;;;;;;;;;;;12.50;66.30;;;7.54;100.00;93367.84;4920048;29;20326;-54
2023/11/02 10:17:38;;;;;;;;;;;12.50;66.30;;;7.53;100.00;93377.66;4931758;29;19914;-52
2023/11/02 10:20:11;;;;;;;;;;;12.40;66.30;;;7.55;100.00;93372.06;4916023;29;20005;-55
2023/11/02 10:22:39;;;;;;;;;;;12.40;66.30;;;7.54;100.00;93376.56;4924619;28;19989;-53
2023/11/02 10:25:06;;;;;;;;;;;12.40;66.30;;;7.58;100.00;93380.22;4916612;29;19918;-50
2023/11/02 10:27:32;;;;;;;;;;;12.40;66.40;;;7.54;100.00;93381.09;4916912;29;20009;-52
2023/11/02 10:29:58;;;;;;;;;;;12.50;66.40;;;7.54;100.00;93391.69;4912936;29;19953;-53
2023/11/02 10:32:24;;;;;;;;;;;12.40;67.20;;;7.55;100.00;93396.72;4932806;29;20280;-54
2023/11/02 10:34:53;;;;;;;;;;;12.40;67.30;;;7.60;100.00;93395.81;4920509;29;19914;-53
2023/11/02 10:37:34;;;;;;;;;;;12.40;66.70;;;7.68;100.00;93399.59;4915427;29;20005;-49
2023/11/02 10:40:01;;;;;;;;;;;12.40;66.80;;;7.67;100.00;93400.69;4906411;29;19914;-47
2023/11/02 10:42:28;;;;;;;;;;;12.40;67.00;;;7.69;100.00;93404.63;4901774;29;19999;-53
2023/11/02 10:44:56;;;;;;;;;;;12.40;67.00;;;7.63;100.00;93400.50;4929041;29;19914;-54
2023/11/02 10:47:30;;;;;;;;;;;12.40;67.20;;;7.64;100.00;93392.25;4902403;29;19911;-53
2023/11/02 10:49:58;;;;;;;;;;;12.40;67.40;;;7.64;100.00;93371.03;4926758;29;19970;-54
2023/11/02 10:52:53;;;;;;;;;;;12.40;67.50;;;7.74;100.00;93356.00;4906987;29;19949;-51
2023/11/02 10:55:37;;;;;;;;;;;12.40;67.60;;;7.79;100.00;93358.53;4923545;29;19911;-54
2023/11/02 10:58:04;;;;;;;;;;;12.40;67.70;;;7.81;100.00;93351.09;4903352;29;20002;-52
2023/11/02 11:00:31;;;;;;;;;;;12.40;67.70;;;7.85;100.00;93344.88;4927355;29;19919;-54
2023/11/02 11:02:58;;;;;;;;;;;12.50;67.80;;;7.89;100.00;93337.09;4904684;29;19938;-50
2023/11/02 11:05:26;;;;;;;;;;;12.50;67.80;;;8.00;100.00;93329.69;4927166;29;19990;-53
2023/11/02 11:08:01;;;;;;;;;;;12.60;67.90;;;8.04;100.00;93326.13;4914321;29;20077;-49
2023/11/02 11:10:30;;;;;;;;;;;12.70;67.90;;;8.01;100.00;93321.41;4923292;29;19919;-51
2023/11/02 11:12:57;;;;;;;;;;;12.70;67.80;;;8.04;100.00;93328.00;4926377;29;19911;-54
2023/11/02 11:15:23;;;;;;;;;;;12.70;67.70;;;8.00;100.00;93314.56;4930865;28;19922;-53
2023/11/02 11:17:50;;;;;;;;;;;12.70;67.70;;;7.97;100.00;93304.56;4901983;29;19937;-54
2023/11/02 11:20:16;;;;;;;;;;;12.80;67.80;;;7.97;100.00;93298.47;4897004;29;19919;-54
2023/11/02 11:22:51;;;;;;;;;;;12.70;67.70;;;7.96;100.00;93283.66;4903217;29;20002;-54
2023/11/02 11:25:18;;;;;;;;;;;12.70;68.60;;;7.91;100.00;93273.19;4901798;29;19954;-51
2023/11/02 11:27:46;;;;;;;;;;;12.70;67.90;;;7.87;100.00;93267.72;4913028;29;20275;-46
2023/11/02 11:30:21;;;;;;;;;;;12.70;67.90;;;7.91;100.00;93263.34;4938533;23;19932;-47
2023/11/02 11:32:51;;;;;;;;;;;12.70;67.90;;;7.99;100.00;93253.88;4952754;28;19914;-47
2023/11/02 11:35:17;;;;;;;;;;;12.70;68.00;;;8.04;100.00;93262.50;4953723;28;19910;-46
2023/11/02 11:37:57;;;;;;;;;;;12.70;68.00;;;8.10;100.00;93260.50;4953842;28;19914;-47
2023/11/02 11:40:29;;;;;;;;;;;12.70;68.00;;;8.13;100.00;93259.09;4938204;28;19981;-48